Flugplatz Gundelfingen

Für EDMU sind keine METAR/TAF Berichte vorhanden.
Es werden die Flugwettermeldungen vom Flugplatz Augsburg in 45 km Entfernung angezeigt.

Bericht für EDMA

vom 30.09. um 22:20 UTC

kein Wind

Sichtweite 500 m

gering bewölkt in 400 ft

Temperatur 4.0°C

Taupunkt 4.0°C

Luftfeuchtigkeit 100%

Luftdruck 1014 hPa

EDMA 302220Z AUTO 00000KT 0450 R25/0700D FEW004/// 04/04 Q1014

Prognose für EDMA

vom 30.09. um 17:00 UTC

Am 30.09. zwischen 18:00 UTC und 03:00 UTC

variable Windrichtung mit 3 kt

Sichtweite 10 km oder mehr

bedeckt in 4000 ft


Zwischen 00:00 UTC und 03:00 UTC zeitweise

Sichtweite 2000 m

Nebelschwaden

TAF EDMA 301700Z 3018/0103 VRB03KT 9999 OVC040 TEMPO 0100/0103 2000 BCFG
Impressum